Fort Worth Nas Jrb,Carswell field Fort Worth US
ICAO: KNFW
IATA: NFW
Category: Medium
Scheduled Services: No

Elevation: 650 ft
TransAlt. 18000 ft.

Airport Communications:
RGNL APP/DEP:125.8
NAVY FORT WORTH ARR:128.775
ATIS:27.357
NAVY FORT WORTH GND:126.4
LOCKHEED:28.41
BASE OPS:29.177
PMSV METRO:34.255
NAVY FORT WORTH TWR:120.95

KNFW Zoom In..

If you have problems with the map follow the link
https://www.worldairports.se/pages/airport.php?
ICAO=KNFW

Runways:

(A) RW 17 length 12000 ft width 200 ft
ILS 108.70 / hdg 174

(B) RW 35 length 12000 ft width 200 ft
ILS 109.30 / hdg 354

Location; KNFW
Day. 26 / Time. 23.52 Zulu
* Altimeter: 29.97
* Temperature: 22° c. 71.6°f.
* Wind from: 090° Speed 05 kn.
Dewpoint: 10° c.
Visibility: 1030 m.
Clouds: Clear (automated report).

KNFW 262352Z AUTO 09005KT CLR 22/10 A2997 RMK AO2 SLP133 T02220100 10300 20161 56005 VISNO N $


Wind From 090°
Speed 05 kn.

 
 
jpsmedia worldairports.se 2020   terms of use